createdAt,value
2018-12-11T16:24:14.183Z,1019.87
2018-12-11T16:25:14.129Z,1019.85
2018-12-11T16:26:14.167Z,1019.84
2018-12-11T16:27:14.223Z,1019.84
2018-12-11T16:28:14.271Z,1019.86
2018-12-11T16:29:14.336Z,1019.93
2018-12-11T16:30:14.424Z,1019.91
2018-12-11T16:31:14.436Z,1020.00
2018-12-11T16:32:14.492Z,1019.98
2018-12-11T16:33:14.549Z,1020.01
2018-12-11T16:34:14.616Z,1020.00
2018-12-11T16:35:14.677Z,1019.96
2018-12-11T16:36:14.720Z,1019.99
2018-12-11T16:37:14.776Z,1019.98
2018-12-11T16:38:14.836Z,1019.98
2018-12-11T16:39:14.900Z,1019.99
2018-12-11T16:40:14.962Z,1019.99
2018-12-11T16:41:15.009Z,1020.04
2018-12-11T16:42:15.069Z,1020.03
2018-12-11T16:43:15.126Z,1020.05
2018-12-11T16:44:15.300Z,1020.08
2018-12-11T16:45:15.272Z,1020.09
2018-12-11T16:46:15.305Z,1020.07
2018-12-11T16:47:15.365Z,1020.11
2018-12-11T16:48:15.420Z,1020.06
2018-12-11T16:49:15.492Z,1020.12
2018-12-11T16:50:15.549Z,1020.10
2018-12-11T16:51:15.597Z,1020.06
2018-12-11T16:52:15.660Z,1020.10
2018-12-11T16:53:15.717Z,1020.14
2018-12-11T16:54:16.317Z,1020.15
2018-12-11T16:55:16.706Z,1020.13
2018-12-11T16:56:15.897Z,1020.11
2018-12-11T16:57:15.958Z,1020.13
2018-12-11T16:58:16.017Z,1020.11
2018-12-11T16:59:16.077Z,1020.16
2018-12-11T17:00:16.222Z,1020.18
2018-12-11T17:01:16.248Z,1020.16
2018-12-11T17:02:16.259Z,1020.17
2018-12-11T17:03:16.314Z,1020.23
2018-12-11T17:04:16.384Z,1020.20
2018-12-11T17:05:16.446Z,1020.21
2018-12-11T17:06:16.502Z,1020.22
2018-12-11T17:07:16.554Z,1020.23
2018-12-11T17:08:16.610Z,1020.25
2018-12-11T17:09:16.675Z,1020.26
2018-12-11T17:10:16.746Z,1020.28
2018-12-11T17:11:16.802Z,1020.21
2018-12-11T17:12:16.854Z,1020.21
2018-12-11T17:13:16.915Z,1020.26
2018-12-11T17:14:16.975Z,1020.25
2018-12-11T17:15:17.043Z,1020.20
2018-12-11T17:16:17.103Z,1020.24
2018-12-11T17:17:17.155Z,1020.21
2018-12-11T17:18:17.215Z,1020.20
2018-12-11T17:19:17.279Z,1020.22
2018-12-11T17:20:17.348Z,1020.19
2018-12-11T17:21:17.404Z,1020.24
2018-12-11T17:22:17.455Z,1020.25
2018-12-11T17:23:17.516Z,1020.25
2018-12-11T17:24:17.576Z,1020.27
2018-12-11T17:25:17.644Z,1020.31
2018-12-11T17:26:17.708Z,1020.32
2018-12-11T17:27:17.756Z,1020.34
2018-12-11T17:28:17.820Z,1020.33
2018-12-11T17:29:23.945Z,1020.33
2018-12-11T17:30:17.944Z,1020.35
2018-12-11T17:31:18.008Z,1020.33
2018-12-11T17:32:18.056Z,1020.37
2018-12-11T17:33:18.120Z,1020.33
2018-12-11T17:34:18.182Z,1020.37
2018-12-11T17:35:18.257Z,1020.34
2018-12-11T17:36:18.297Z,1020.33
2018-12-11T17:37:18.361Z,1020.35
2018-12-11T17:38:18.421Z,1020.30
2018-12-11T17:39:18.477Z,1020.32
2018-12-11T17:40:18.548Z,1020.33
2018-12-11T17:41:18.609Z,1020.32
2018-12-11T17:42:18.661Z,1020.33
2018-12-11T17:43:18.717Z,1020.38
2018-12-11T17:44:18.778Z,1020.38
2018-12-11T17:45:18.849Z,1020.42
2018-12-11T17:46:18.909Z,1020.41
2018-12-11T17:47:18.957Z,1020.45
2018-12-11T17:48:19.181Z,1020.45
2018-12-11T17:49:19.085Z,1020.44
2018-12-11T17:50:19.161Z,1020.45
2018-12-11T17:51:19.201Z,1020.49
2018-12-11T17:52:19.321Z,1020.45
2018-12-11T17:53:19.318Z,1020.46
2018-12-11T17:54:19.378Z,1020.45
2018-12-11T17:55:19.446Z,1020.43
2018-12-11T17:56:19.506Z,1020.37
2018-12-11T17:57:19.558Z,1020.38
2018-12-11T17:58:19.621Z,1020.34
2018-12-11T17:59:19.677Z,1020.38
2018-12-11T18:00:19.746Z,1020.35
2018-12-11T18:01:19.806Z,1020.35
2018-12-11T18:02:19.862Z,1020.33
2018-12-11T18:03:19.923Z,1020.36
2018-12-11T18:04:19.977Z,1020.34
2018-12-11T18:05:20.052Z,1020.35
2018-12-11T18:06:20.106Z,1020.35
2018-12-11T18:07:20.158Z,1020.34
2018-12-11T18:08:20.220Z,1020.35
2018-12-11T18:09:20.278Z,1020.37
2018-12-11T18:10:20.359Z,1020.45
2018-12-11T18:11:20.399Z,1020.50
2018-12-11T18:12:20.458Z,1020.51
2018-12-11T18:13:20.518Z,1020.51
2018-12-11T18:14:20.579Z,1020.53
2018-12-11T18:15:20.647Z,1020.49
2018-12-11T18:16:20.703Z,1020.50
2018-12-11T18:17:20.832Z,1020.53
2018-12-11T18:18:20.823Z,1020.52
2018-12-11T18:19:20.875Z,1020.53
2018-12-11T18:20:20.943Z,1020.57
2018-12-11T18:21:21.014Z,1020.54
2018-12-11T18:22:21.056Z,1020.54
2018-12-11T18:23:21.116Z,1020.55
2018-12-11T18:24:21.175Z,1020.53
2018-12-11T18:25:21.576Z,1020.55
2018-12-11T18:26:21.295Z,1020.56
2018-12-11T18:27:21.360Z,1020.56
2018-12-11T18:28:21.416Z,1020.60
2018-12-11T18:29:21.475Z,1020.60
2018-12-11T18:30:21.531Z,1020.59
2018-12-11T18:31:21.696Z,1020.62
2018-12-11T18:32:25.026Z,1020.61
2018-12-11T18:33:21.712Z,1020.60
2018-12-11T18:34:21.772Z,1020.58
2018-12-11T18:35:21.832Z,1020.65
2018-12-11T18:36:21.900Z,1020.65
2018-12-11T18:37:21.956Z,1020.65
2018-12-11T18:38:22.010Z,1020.65
2018-12-11T18:39:22.068Z,1020.68
2018-12-11T18:40:22.128Z,1020.69
2018-12-11T18:41:22.282Z,1020.67
2018-12-11T18:42:22.248Z,1020.67
2018-12-11T18:43:22.308Z,1020.69
2018-12-11T18:44:22.364Z,1020.68
2018-12-11T18:45:22.425Z,1020.70
2018-12-11T18:46:22.493Z,1020.66
2018-12-11T18:47:22.922Z,1020.67
2018-12-11T18:48:25.065Z,1020.69
2018-12-11T18:49:22.677Z,1020.68
2018-12-11T18:50:22.731Z,1020.72
2018-12-11T18:51:22.789Z,1020.75
2018-12-11T18:52:22.849Z,1020.73
2018-12-11T18:53:22.901Z,1020.72
2018-12-11T18:54:22.963Z,1020.73
2018-12-11T18:55:23.678Z,1020.71
2018-12-11T18:56:23.173Z,1020.71
2018-12-11T18:57:23.137Z,1020.72
2018-12-11T18:58:24.713Z,1020.70
2018-12-11T18:59:23.258Z,1020.71
2018-12-11T19:00:25.585Z,1020.69
2018-12-11T19:01:27.093Z,1020.68
2018-12-11T19:02:26.493Z,1020.74
2018-12-11T19:03:23.496Z,1020.74
2018-12-11T19:04:23.560Z,1020.77
2018-12-11T19:05:23.613Z,1020.74
2018-12-11T19:06:23.673Z,1020.75
2018-12-11T19:07:23.977Z,1020.73
2018-12-11T19:08:23.790Z,1020.73
2018-12-11T19:09:23.850Z,1020.73
2018-12-11T19:10:23.910Z,1020.77
2018-12-11T19:11:23.975Z,1020.79
2018-12-11T19:12:24.033Z,1020.77
2018-12-11T19:13:24.093Z,1020.81
2018-12-11T19:14:24.146Z,1020.78
2018-12-11T19:15:24.206Z,1020.79
2018-12-11T19:16:24.286Z,1020.80
2018-12-11T19:17:24.438Z,1020.82
2018-12-11T19:18:24.386Z,1020.77
2018-12-11T19:19:24.443Z,1020.80
2018-12-11T19:20:24.503Z,1020.78
2018-12-11T19:21:24.562Z,1020.80
2018-12-11T19:22:24.631Z,1020.78
2018-12-11T19:23:24.686Z,1020.79
2018-12-11T19:24:24.738Z,1020.76
2018-12-11T19:25:24.798Z,1020.74
2018-12-11T19:26:24.859Z,1020.74
2018-12-11T19:27:25.023Z,1020.80
2018-12-11T19:28:24.986Z,1020.82
2018-12-11T19:29:25.040Z,1020.81
2018-12-11T19:30:25.094Z,1020.83
2018-12-11T19:31:25.156Z,1020.86
2018-12-11T19:32:25.214Z,1020.85
2018-12-11T19:33:25.306Z,1020.84
2018-12-11T19:34:25.335Z,1020.85
2018-12-11T19:35:25.391Z,1020.84
2018-12-11T19:36:25.451Z,1020.83
2018-12-11T19:37:25.513Z,1020.82
2018-12-11T19:38:25.578Z,1020.82
2018-12-11T19:39:25.639Z,1020.82
2018-12-11T19:40:25.691Z,1020.79
2018-12-11T19:41:25.746Z,1020.77
2018-12-11T19:42:25.807Z,1020.81
2018-12-11T19:43:25.879Z,1020.81
2018-12-11T19:44:25.939Z,1020.83
2018-12-11T19:45:25.987Z,1020.80
2018-12-11T19:46:26.059Z,1020.79
2018-12-11T19:47:26.107Z,1020.76
2018-12-11T19:48:26.183Z,1020.75
2018-12-11T19:49:26.227Z,1020.76
2018-12-11T19:50:26.282Z,1020.76
2018-12-11T19:51:26.345Z,1020.74
2018-12-11T19:52:26.404Z,1020.72
2018-12-11T19:53:26.476Z,1020.73
2018-12-11T19:54:26.528Z,1020.74
2018-12-11T19:55:26.579Z,1020.75
2018-12-11T19:56:26.644Z,1020.72
2018-12-11T19:57:26.707Z,1020.75
2018-12-11T19:58:26.767Z,1020.72
2018-12-11T19:59:26.827Z,1020.74
2018-12-11T20:00:26.884Z,1020.71
2018-12-11T20:01:26.936Z,1020.72
2018-12-11T20:02:26.996Z,1020.69
2018-12-11T20:03:27.063Z,1020.66
2018-12-11T20:04:27.121Z,1020.69
2018-12-11T20:05:27.195Z,1020.71
2018-12-11T20:06:27.235Z,1020.69
2018-12-11T20:07:27.291Z,1020.73
2018-12-11T20:08:31.087Z,1020.74
2018-12-11T20:09:27.423Z,1020.72
2018-12-11T20:10:27.480Z,1020.77
2018-12-11T20:11:27.536Z,1020.80
2018-12-11T20:12:27.607Z,1020.80
2018-12-11T20:13:27.659Z,1020.82
2018-12-11T20:14:27.715Z,1020.85
2018-12-11T20:15:28.120Z,1020.85
2018-12-11T20:16:27.840Z,1020.83
2018-12-11T20:17:27.887Z,1020.81
2018-12-11T20:18:27.955Z,1020.80
2018-12-11T20:19:28.168Z,1020.83
2018-12-11T20:20:28.068Z,1020.78
2018-12-11T20:21:28.127Z,1020.77
2018-12-11T20:22:28.870Z,1020.81
2018-12-11T20:23:28.252Z,1020.76
2018-12-11T20:24:28.320Z,1020.79
2018-12-11T20:25:28.364Z,1020.78
2018-12-11T20:26:28.424Z,1020.74
2018-12-11T20:27:28.485Z,1020.74
2018-12-11T20:28:28.548Z,1020.74
2018-12-11T20:29:28.604Z,1020.76
2018-12-11T20:30:28.704Z,1020.75
2018-12-11T20:31:28.720Z,1020.74
2018-12-11T20:32:28.780Z,1020.77
2018-12-11T20:33:28.839Z,1020.77
2018-12-11T20:34:28.908Z,1020.78
2018-12-11T20:35:28.967Z,1020.79
2018-12-11T20:36:29.016Z,1020.78
2018-12-11T20:37:29.077Z,1020.79
2018-12-11T20:38:29.157Z,1020.81
2018-12-11T20:39:29.196Z,1020.82
2018-12-11T20:40:29.512Z,1020.80
2018-12-11T20:41:29.316Z,1020.80
2018-12-11T20:42:29.376Z,1020.76
2018-12-11T20:43:30.195Z,1020.78
2018-12-11T20:44:29.720Z,1020.77
2018-12-11T20:45:29.560Z,1020.78
2018-12-11T20:46:29.620Z,1020.78
2018-12-11T20:47:29.772Z,1020.72
2018-12-11T20:48:29.821Z,1020.72
2018-12-11T20:49:29.788Z,1020.75
2018-12-11T20:50:29.856Z,1020.70
2018-12-11T20:51:30.072Z,1020.71
2018-12-11T20:52:29.969Z,1020.73
2018-12-11T20:53:30.033Z,1020.70
2018-12-11T20:54:30.088Z,1020.71
2018-12-11T20:55:30.265Z,1020.72
2018-12-11T20:56:30.204Z,1020.73
2018-12-11T20:57:30.265Z,1020.75
2018-12-11T20:58:30.617Z,1020.72
2018-12-11T20:59:30.385Z,1020.72
2018-12-11T21:00:30.448Z,1020.72
2018-12-11T21:01:30.509Z,1020.69
2018-12-11T21:02:30.641Z,1020.73
2018-12-11T21:03:30.625Z,1020.71
2018-12-11T21:04:30.681Z,1020.71
2018-12-11T21:05:31.133Z,1020.70
2018-12-11T21:06:30.809Z,1020.74
2018-12-11T21:07:30.858Z,1020.73
2018-12-11T21:08:30.919Z,1020.75
2018-12-11T21:09:31.057Z,1020.73
2018-12-11T21:10:31.041Z,1020.73
2018-12-11T21:11:31.106Z,1020.71
2018-12-11T21:12:31.289Z,1020.72
2018-12-11T21:13:31.213Z,1020.74
2018-12-11T21:14:31.274Z,1020.73
2018-12-11T21:15:31.338Z,1020.76
2018-12-11T21:16:31.638Z,1020.75
2018-12-11T21:17:31.450Z,1020.79
2018-12-11T21:18:31.510Z,1020.76
2018-12-11T21:19:31.630Z,1020.78
2018-12-11T21:20:31.633Z,1020.85
2018-12-11T21:21:31.694Z,1020.84
2018-12-11T21:22:31.750Z,1020.84
2018-12-11T21:23:31.805Z,1020.83
2018-12-11T21:24:31.870Z,1020.84
2018-12-11T21:25:31.938Z,1020.83
2018-12-11T21:26:31.991Z,1020.83
2018-12-11T21:27:32.038Z,1020.84
2018-12-11T21:28:32.102Z,1020.80
2018-12-11T21:29:32.163Z,1020.80
2018-12-11T21:30:32.250Z,1020.80
2018-12-11T21:31:32.275Z,1020.79
2018-12-11T21:32:32.334Z,1020.81
2018-12-11T21:33:32.400Z,1020.79
2018-12-11T21:34:32.459Z,1020.81
2018-12-11T21:35:32.519Z,1020.75
2018-12-11T21:36:32.587Z,1020.78
2018-12-11T21:37:32.630Z,1020.82
2018-12-11T21:38:32.691Z,1020.84
2018-12-11T21:39:32.748Z,1020.82
2018-12-11T21:40:32.815Z,1020.86
2018-12-11T21:41:32.879Z,1020.83
2018-12-11T21:42:32.924Z,1020.77
2018-12-11T21:43:32.983Z,1020.82
2018-12-11T21:44:33.043Z,1020.80
2018-12-11T21:45:33.359Z,1020.82
2018-12-11T21:46:33.160Z,1020.76
2018-12-11T21:47:33.220Z,1020.75
2018-12-11T21:48:33.279Z,1020.78
2018-12-11T21:49:33.336Z,1020.80
2018-12-11T21:50:33.412Z,1020.80
2018-12-11T21:51:33.463Z,1020.79
2018-12-11T21:52:33.515Z,1020.79
2018-12-11T21:53:33.575Z,1020.82
2018-12-11T21:54:33.631Z,1020.79
2018-12-11T21:55:33.700Z,1020.78
2018-12-11T21:56:33.756Z,1020.76
2018-12-11T21:57:34.026Z,1020.76
2018-12-11T21:58:33.868Z,1020.76
2018-12-11T21:59:33.924Z,1020.74
2018-12-11T22:00:33.993Z,1020.69
2018-12-11T22:01:34.053Z,1020.65
2018-12-11T22:02:34.104Z,1020.62
2018-12-11T22:03:34.160Z,1020.64
2018-12-11T22:04:34.221Z,1020.62
2018-12-11T22:05:34.304Z,1020.66
2018-12-11T22:06:34.343Z,1020.69
2018-12-11T22:07:34.397Z,1020.68
2018-12-11T22:08:34.460Z,1020.67
2018-12-11T22:09:34.513Z,1020.66
2018-12-11T22:10:34.581Z,1020.64
2018-12-11T22:11:34.639Z,1020.67
2018-12-11T22:12:34.692Z,1020.67
2018-12-11T22:13:34.752Z,1020.69
2018-12-11T22:14:34.808Z,1020.69
2018-12-11T22:15:34.874Z,1020.72
2018-12-11T22:16:34.934Z,1020.68
2018-12-11T22:17:34.981Z,1020.75
2018-12-11T22:18:35.049Z,1020.77
2018-12-11T22:19:35.102Z,1020.78
2018-12-11T22:20:35.157Z,1020.76
2018-12-11T22:21:35.241Z,1020.82
2018-12-11T22:22:35.278Z,1020.81
2018-12-11T22:23:35.334Z,1020.83
2018-12-11T22:24:35.394Z,1020.81
2018-12-11T22:25:35.454Z,1020.81
2018-12-11T22:26:35.522Z,1020.77
2018-12-11T22:27:35.574Z,1020.79
2018-12-11T22:28:35.627Z,1020.81
2018-12-11T22:29:35.690Z,1020.80
2018-12-11T22:30:35.746Z,1020.82
2018-12-11T22:31:35.810Z,1020.84
2018-12-11T22:32:35.870Z,1020.82
2018-12-11T22:33:35.918Z,1020.84
2018-12-11T22:34:35.978Z,1020.84
2018-12-11T22:35:36.038Z,1020.87
2018-12-11T22:36:36.146Z,1020.86
2018-12-11T22:37:36.156Z,1020.91
2018-12-11T22:38:36.214Z,1020.87
